createdAt,value
2019-06-08T00:03:02.773Z,8.83
2019-06-08T00:06:08.566Z,11.27
2019-06-08T00:09:16.698Z,11.50
2019-06-08T00:12:23.240Z,9.77
2019-06-08T00:15:29.064Z,9.37
2019-06-08T00:18:34.805Z,10.67
2019-06-08T00:21:40.521Z,8.33
2019-06-08T00:24:46.269Z,9.57
2019-06-08T00:27:51.943Z,11.23
2019-06-08T00:30:57.618Z,8.13
2019-06-08T00:34:03.304Z,8.90
2019-06-08T00:37:09.033Z,18.07
2019-06-08T00:40:15.144Z,12.30
2019-06-08T00:43:21.398Z,10.37
2019-06-08T00:46:27.328Z,9.73
2019-06-08T00:49:33.045Z,8.20
2019-06-08T00:52:38.750Z,11.70
2019-06-08T00:55:44.559Z,11.77
2019-06-08T00:58:50.365Z,12.10
2019-06-08T01:01:56.166Z,9.93
2019-06-08T01:05:01.958Z,10.73
2019-06-08T01:08:07.964Z,9.87
2019-06-08T01:11:13.781Z,10.23
2019-06-08T01:14:20.791Z,12.27
2019-06-08T01:17:27.528Z,12.47
2019-06-08T01:20:33.409Z,12.30
2019-06-08T01:23:39.092Z,9.50
2019-06-08T01:26:44.900Z,8.03
2019-06-08T01:29:50.667Z,10.00
2019-06-08T01:32:56.582Z,7.20
2019-06-08T01:36:02.310Z,8.27
2019-06-08T01:39:08.626Z,9.27
2019-06-08T01:42:14.649Z,9.63
2019-06-08T01:45:30.472Z,9.10
2019-06-08T01:48:36.232Z,7.20
2019-06-08T01:51:42.008Z,9.97
2019-06-08T01:54:47.864Z,8.97
2019-06-08T01:57:53.627Z,12.00
2019-06-08T02:00:59.383Z,14.10
2019-06-08T02:04:05.445Z,11.47
2019-06-08T02:07:11.436Z,11.13
2019-06-08T02:10:17.399Z,10.47
2019-06-08T02:13:23.135Z,11.10
2019-06-08T02:16:29.692Z,11.07
2019-06-08T02:19:36.461Z,14.80
2019-06-08T02:22:42.185Z,14.93
2019-06-08T02:25:48.143Z,11.10
2019-06-08T02:28:56.977Z,11.23
2019-06-08T02:32:07.115Z,12.63
2019-06-08T02:35:18.446Z,11.13
2019-06-08T02:38:31.937Z,8.50
2019-06-08T02:41:39.819Z,11.40
2019-06-08T02:44:45.523Z,10.37
2019-06-08T02:47:51.334Z,9.10
2019-06-08T02:50:57.853Z,10.60
2019-06-08T02:54:04.750Z,9.40
2019-06-08T02:57:12.003Z,9.47
2019-06-08T03:00:18.840Z,8.77
2019-06-08T03:03:26.722Z,10.33
2019-06-08T03:06:34.704Z,10.33
2019-06-08T03:09:42.186Z,10.87
2019-06-08T03:12:50.331Z,12.07
2019-06-08T03:15:56.006Z,8.70
2019-06-08T03:19:20.150Z,11.93
2019-06-08T03:22:10.881Z,9.50
2019-06-08T03:25:16.446Z,7.97
2019-06-08T03:28:22.155Z,10.53
2019-06-08T03:31:27.838Z,8.67
2019-06-08T03:34:35.665Z,14.83
2019-06-08T03:37:42.844Z,12.13
2019-06-08T03:40:49.339Z,9.77
2019-06-08T03:43:55.031Z,16.67
2019-06-08T03:47:00.698Z,12.23
2019-06-08T03:50:08.794Z,10.00
2019-06-08T03:53:14.440Z,14.27
2019-06-08T03:56:20.165Z,15.57
2019-06-08T03:59:25.861Z,10.83
2019-06-08T04:02:31.532Z,10.90
2019-06-08T04:05:37.940Z,10.87
2019-06-08T04:08:47.048Z,12.20
2019-06-08T04:11:51.991Z,13.30
2019-06-08T04:15:00.265Z,16.40
2019-06-08T04:18:06.157Z,11.73
2019-06-08T04:21:11.993Z,14.57
2019-06-08T04:24:17.695Z,12.70
2019-06-08T04:27:23.391Z,11.97
2019-06-08T04:30:29.166Z,18.50
2019-06-08T04:33:34.895Z,12.67
2019-06-08T04:36:41.281Z,12.50
2019-06-08T04:39:47.563Z,19.73
2019-06-08T04:42:53.342Z,16.27
2019-06-08T04:45:59.003Z,12.20
2019-06-08T04:49:04.823Z,19.17
2019-06-08T04:52:10.559Z,17.23
2019-06-08T04:55:16.463Z,14.37
2019-06-08T04:58:23.559Z,14.83
2019-06-08T05:01:29.315Z,13.83
2019-06-08T05:04:34.995Z,11.50
2019-06-08T05:07:41.482Z,16.70
2019-06-08T05:10:49.706Z,12.77
2019-06-08T05:13:55.536Z,13.63
2019-06-08T05:17:01.263Z,11.63
2019-06-08T05:20:07.567Z,13.03
2019-06-08T05:23:13.278Z,10.90
2019-06-08T05:26:18.932Z,16.63
2019-06-08T05:29:24.655Z,12.97
2019-06-08T05:32:30.372Z,10.77
2019-06-08T05:35:36.153Z,11.13
2019-06-08T05:38:43.458Z,11.33
2019-06-08T05:41:49.794Z,8.40
2019-06-08T05:44:55.680Z,8.40
2019-06-08T05:48:01.318Z,8.73
2019-06-08T05:51:07.024Z,10.17
2019-06-08T05:54:12.720Z,11.73
2019-06-08T05:57:18.424Z,11.17
2019-06-08T06:00:24.360Z,10.50
2019-06-08T06:03:30.035Z,11.40
2019-06-08T06:06:35.744Z,10.77
2019-06-08T06:09:42.935Z,11.63
2019-06-08T06:12:49.081Z,13.17
2019-06-08T06:15:54.802Z,9.90
2019-06-08T06:19:00.532Z,10.47
2019-06-08T06:22:06.245Z,10.13
2019-06-08T06:25:12.093Z,8.67
2019-06-08T06:28:17.803Z,11.77
2019-06-08T06:31:23.456Z,15.37
2019-06-08T06:34:29.143Z,11.23
2019-06-08T06:37:34.952Z,9.23
2019-06-08T06:40:41.976Z,10.50
2019-06-08T06:43:48.163Z,11.50
2019-06-08T06:46:53.816Z,12.53
2019-06-08T06:49:59.501Z,10.03
2019-06-08T06:53:05.190Z,9.38
2019-06-08T06:56:10.870Z,9.35
2019-06-08T06:59:16.585Z,10.95
2019-06-08T07:02:22.943Z,9.73
2019-06-08T07:05:28.647Z,11.60
2019-06-08T07:08:34.323Z,11.33
2019-06-08T07:11:40.011Z,9.40
2019-06-08T07:14:46.931Z,10.58
2019-06-08T07:17:53.570Z,12.03
2019-06-08T07:21:00.173Z,9.78
2019-06-08T07:24:05.958Z,9.63
2019-06-08T07:27:11.714Z,9.88
2019-06-08T07:30:17.673Z,9.63
2019-06-08T07:33:23.374Z,8.13
2019-06-08T07:36:29.148Z,16.37
2019-06-08T07:39:34.842Z,10.60
2019-06-08T07:42:40.600Z,12.70
2019-06-08T07:45:46.262Z,11.97
2019-06-08T07:48:52.360Z,11.25
2019-06-08T07:52:08.263Z,8.50
2019-06-08T07:55:05.623Z,13.62
2019-06-08T07:58:11.291Z,9.93
2019-06-08T08:01:17.632Z,10.63
2019-06-08T08:04:23.311Z,9.98
2019-06-08T08:07:29.001Z,8.38
2019-06-08T08:10:34.652Z,9.80
2019-06-08T08:13:40.446Z,8.05
2019-06-08T08:16:46.133Z,15.63
2019-06-08T08:19:53.082Z,10.50
2019-06-08T08:23:05.611Z,8.98
2019-06-08T08:26:06.438Z,11.63
2019-06-08T08:29:12.128Z,12.75
2019-06-08T08:32:18.791Z,10.78
2019-06-08T08:35:24.710Z,12.80
2019-06-08T08:38:30.384Z,9.45
2019-06-08T08:41:36.176Z,11.10
2019-06-08T08:44:41.971Z,8.30
2019-06-08T08:47:48.482Z,9.93
2019-06-08T08:50:54.386Z,10.53
2019-06-08T08:54:04.754Z,11.55
2019-06-08T08:57:08.485Z,8.18
2019-06-08T09:00:14.548Z,11.43
2019-06-08T09:03:29.109Z,8.50
2019-06-08T09:06:28.100Z,11.57
2019-06-08T09:09:33.757Z,12.90
2019-06-08T09:12:39.494Z,13.85
2019-06-08T09:15:47.853Z,9.50
2019-06-08T09:18:53.762Z,9.33
2019-06-08T09:22:02.264Z,9.83
2019-06-08T09:25:08.788Z,12.45
2019-06-08T09:28:14.528Z,8.58
2019-06-08T09:31:20.245Z,16.48
2019-06-08T09:34:28.113Z,11.08
2019-06-08T09:37:33.312Z,9.58
2019-06-08T09:40:39.006Z,8.53
2019-06-08T09:43:44.785Z,11.30
2019-06-08T09:46:50.473Z,8.13
2019-06-08T09:49:58.807Z,9.28
2019-06-08T09:53:22.361Z,9.38
2019-06-08T09:56:11.031Z,9.83
2019-06-08T09:59:18.717Z,9.05
2019-06-08T10:02:24.119Z,8.63
2019-06-08T10:05:29.819Z,9.73
2019-06-08T10:08:35.506Z,6.53
2019-06-08T10:11:41.265Z,11.08
2019-06-08T10:14:49.020Z,7.97
2019-06-08T10:17:54.861Z,6.95
2019-06-08T10:21:04.964Z,9.00
2019-06-08T10:24:10.581Z,7.80
2019-06-08T10:27:18.765Z,11.90
2019-06-08T10:30:23.726Z,7.12
2019-06-08T10:33:29.387Z,5.42
2019-06-08T10:36:35.223Z,7.75
2019-06-08T10:39:40.937Z,4.67
2019-06-08T10:42:48.291Z,8.90
2019-06-08T10:45:54.095Z,7.87
2019-06-08T10:48:59.858Z,7.28
2019-06-08T10:52:09.846Z,7.92
2019-06-08T10:55:13.585Z,6.67
2019-06-08T10:58:20.718Z,7.25
2019-06-08T11:01:28.280Z,20.40
2019-06-08T11:04:33.800Z,7.08
2019-06-08T11:07:39.500Z,4.78
2019-06-08T11:10:47.440Z,31.37
2019-06-08T11:13:52.615Z,13.72
2019-06-08T11:16:58.497Z,9.23
2019-06-08T11:20:07.410Z,9.98
2019-06-08T11:23:12.664Z,8.50
2019-06-08T11:26:24.294Z,7.03
2019-06-08T11:29:27.628Z,23.12
2019-06-08T11:32:34.495Z,7.35
2019-06-08T11:35:40.198Z,9.58
2019-06-08T11:38:47.794Z,10.75
2019-06-08T11:41:53.688Z,8.28
2019-06-08T11:45:00.301Z,8.35
2019-06-08T11:48:06.532Z,11.28
2019-06-08T11:51:13.170Z,8.53
2019-06-08T11:54:32.884Z,8.05
2019-06-08T11:57:28.312Z,8.75
2019-06-08T12:01:13.795Z,8.03
2019-06-08T12:04:18.393Z,7.78
2019-06-08T12:07:25.400Z,7.00
2019-06-08T12:10:31.082Z,7.15
2019-06-08T12:13:36.900Z,8.53
2019-06-08T12:16:42.615Z,7.42
2019-06-08T12:19:48.261Z,7.50
2019-06-08T12:22:53.949Z,6.50
2019-06-08T12:25:59.647Z,10.70
2019-06-08T12:29:05.322Z,10.18
2019-06-08T12:32:13.592Z,8.13
2019-06-08T12:35:18.543Z,11.83
2019-06-08T12:38:24.232Z,7.58
2019-06-08T12:41:31.516Z,8.25
2019-06-08T12:44:38.223Z,9.13
2019-06-08T12:47:45.132Z,12.33
2019-06-08T12:50:50.837Z,8.60
2019-06-08T12:53:59.986Z,12.68
2019-06-08T12:57:03.914Z,9.45
2019-06-08T13:00:11.554Z,10.60
2019-06-08T13:03:18.682Z,12.65
2019-06-08T13:06:24.553Z,8.25
2019-06-08T13:09:30.280Z,10.68
2019-06-08T13:12:36.062Z,14.25
2019-06-08T13:15:41.721Z,10.43
2019-06-08T13:18:48.147Z,8.05
2019-06-08T13:21:54.153Z,7.92
2019-06-08T13:25:15.183Z,9.08
2019-06-08T13:28:12.257Z,7.60
2019-06-08T13:31:16.271Z,9.23
2019-06-08T13:34:24.092Z,10.82
2019-06-08T13:37:29.359Z,11.55
2019-06-08T13:40:37.696Z,9.85
2019-06-08T13:43:42.406Z,11.73
2019-06-08T13:46:49.241Z,7.55
2019-06-08T13:49:54.909Z,13.88
2019-06-08T13:53:00.838Z,7.42
2019-06-08T13:56:07.839Z,10.03
2019-06-08T13:59:18.071Z,12.33
2019-06-08T14:02:25.122Z,14.00
2019-06-08T14:05:31.933Z,9.63
2019-06-08T14:08:38.619Z,9.15
2019-06-08T14:11:44.423Z,10.30
2019-06-08T14:14:50.117Z,10.28
2019-06-08T14:17:55.749Z,9.95
2019-06-08T14:21:01.437Z,15.95
2019-06-08T14:24:07.758Z,10.88
2019-06-08T14:27:14.643Z,12.40
2019-06-08T14:30:22.150Z,8.63
2019-06-08T14:33:32.102Z,11.00
2019-06-08T14:36:35.394Z,8.83
2019-06-08T14:39:41.175Z,10.30
2019-06-08T14:42:48.451Z,13.35
2019-06-08T14:45:54.412Z,12.13
2019-06-08T14:49:00.081Z,8.75
2019-06-08T14:52:07.946Z,12.78
2019-06-08T14:55:13.511Z,12.30
2019-06-08T14:58:23.980Z,11.90
2019-06-08T15:01:29.787Z,10.28
2019-06-08T15:04:36.676Z,14.85
2019-06-08T15:07:41.425Z,13.32
2019-06-08T15:10:49.592Z,14.60
2019-06-08T15:13:54.541Z,10.65
2019-06-08T15:17:00.243Z,19.75
2019-06-08T15:20:08.637Z,14.05
2019-06-08T15:23:16.855Z,11.68
2019-06-08T15:26:29.035Z,14.30
2019-06-08T15:29:30.686Z,12.85
2019-06-08T15:32:38.576Z,13.75
2019-06-08T15:35:43.936Z,12.85
2019-06-08T15:38:49.621Z,13.22
2019-06-08T15:41:55.323Z,13.70
2019-06-08T15:45:01.115Z,17.25
2019-06-08T15:48:07.980Z,14.87
2019-06-08T15:51:13.869Z,14.63
2019-06-08T15:54:19.547Z,14.75
2019-06-08T15:57:27.538Z,11.20
2019-06-08T16:00:33.258Z,13.90
2019-06-08T16:03:40.117Z,9.65
2019-06-08T16:06:45.950Z,9.60
2019-06-08T16:09:51.607Z,9.53
2019-06-08T16:12:57.289Z,11.22
2019-06-08T16:16:02.974Z,12.45
2019-06-08T16:19:08.700Z,15.15
2019-06-08T16:22:14.376Z,8.75
2019-06-08T16:25:20.207Z,11.93
2019-06-08T16:28:25.916Z,12.63
2019-06-08T16:31:33.145Z,14.83
2019-06-08T16:34:39.687Z,10.00
2019-06-08T16:37:45.669Z,14.13
2019-06-08T16:40:51.449Z,9.45
2019-06-08T16:43:57.144Z,15.15
2019-06-08T16:47:02.807Z,14.53
2019-06-08T16:50:23.255Z,11.53
2019-06-08T16:53:16.710Z,14.45
2019-06-08T16:56:23.418Z,19.42
2019-06-08T16:59:30.163Z,11.75
2019-06-08T17:02:37.177Z,14.50
2019-06-08T17:05:43.106Z,10.40
2019-06-08T17:08:48.797Z,15.45
2019-06-08T17:11:54.618Z,15.32
2019-06-08T17:15:00.313Z,12.85
2019-06-08T17:18:06.056Z,14.13
2019-06-08T17:21:11.767Z,17.55
2019-06-08T17:24:17.401Z,12.00
2019-06-08T17:27:26.975Z,11.95
2019-06-08T17:30:30.758Z,11.10
2019-06-08T17:33:37.257Z,16.82
2019-06-08T17:36:43.002Z,16.57
2019-06-08T17:39:48.686Z,12.20
2019-06-08T17:42:54.380Z,19.42
2019-06-08T17:46:00.044Z,19.10
2019-06-08T17:49:06.078Z,21.95
2019-06-08T17:52:11.833Z,18.02
2019-06-08T17:55:17.770Z,15.20
2019-06-08T17:58:23.459Z,18.85
2019-06-08T18:01:29.339Z,18.42
2019-06-08T18:04:36.119Z,21.05
2019-06-08T18:07:44.317Z,16.93
2019-06-08T18:10:49.980Z,20.50
2019-06-08T18:13:58.264Z,16.32
2019-06-08T18:17:03.299Z,18.17
2019-06-08T18:20:11.830Z,21.95
2019-06-08T18:23:17.601Z,32.30
2019-06-08T18:26:23.333Z,25.07
2019-06-08T18:29:28.987Z,24.40
2019-06-08T18:32:34.862Z,21.95
2019-06-08T18:35:41.869Z,18.45
2019-06-08T18:38:48.603Z,17.65
2019-06-08T18:41:54.435Z,22.85
2019-06-08T18:45:00.116Z,18.50
2019-06-08T18:48:07.122Z,22.77
2019-06-08T18:51:17.439Z,14.28
2019-06-08T18:54:22.746Z,19.87
2019-06-08T18:57:28.477Z,12.93
2019-06-08T19:00:41.986Z,22.93
2019-06-08T19:03:49.815Z,20.95
2019-06-08T19:06:54.717Z,15.23
2019-06-08T19:10:03.451Z,21.27
2019-06-08T19:13:09.221Z,22.55
2019-06-08T19:16:14.938Z,19.50
2019-06-08T19:19:20.627Z,20.90
2019-06-08T19:22:30.030Z,19.35
2019-06-08T19:25:33.763Z,18.90
2019-06-08T19:28:44.965Z,15.88
2019-06-08T19:31:50.019Z,18.65
2019-06-08T19:34:54.956Z,15.65
2019-06-08T19:38:00.770Z,22.17
2019-06-08T19:41:08.132Z,18.20
2019-06-08T19:44:13.908Z,18.93
2019-06-08T19:47:19.587Z,22.67
2019-06-08T19:50:28.040Z,19.27
2019-06-08T19:53:32.796Z,17.80
2019-06-08T19:56:39.039Z,19.47
2019-06-08T19:59:46.021Z,19.17
2019-06-08T20:02:54.995Z,19.53
2019-06-08T20:05:59.099Z,21.00
2019-06-08T20:09:07.935Z,17.30
2019-06-08T20:12:13.113Z,22.32
2019-06-08T20:15:19.316Z,23.73
2019-06-08T20:18:25.015Z,21.83
2019-06-08T20:21:30.765Z,22.13
2019-06-08T20:24:37.768Z,22.70
2019-06-08T20:27:43.743Z,16.37
2019-06-08T20:30:50.602Z,19.40
2019-06-08T20:33:57.714Z,17.07
2019-06-08T20:37:03.464Z,24.13
2019-06-08T20:40:13.836Z,25.10
2019-06-08T20:43:17.685Z,25.07
2019-06-08T20:46:23.620Z,24.10
2019-06-08T20:49:29.350Z,19.20
2019-06-08T20:52:37.599Z,17.63
2019-06-08T20:55:43.121Z,20.07
2019-06-08T20:58:50.952Z,24.00
2019-06-08T21:01:58.625Z,19.53
2019-06-08T21:05:04.017Z,24.87
2019-06-08T21:08:09.725Z,25.20
2019-06-08T21:11:17.634Z,21.00
2019-06-08T21:14:22.886Z,21.63
2019-06-08T21:17:28.617Z,19.63
2019-06-08T21:20:34.287Z,18.53
2019-06-08T21:23:39.996Z,17.53
2019-06-08T21:26:50.693Z,22.13
2019-06-08T21:29:59.929Z,20.57
2019-06-08T21:33:00.999Z,17.43
2019-06-08T21:36:08.727Z,19.10
2019-06-08T21:39:14.247Z,22.10
2019-06-08T21:42:19.915Z,17.90
2019-06-08T21:45:27.474Z,23.50
2019-06-08T21:48:33.102Z,28.60
2019-06-08T21:51:38.813Z,25.40
2019-06-08T21:54:44.532Z,21.23
2019-06-08T21:57:52.696Z,25.30
2019-06-08T22:00:59.707Z,20.67
2019-06-08T22:04:07.653Z,25.40
2019-06-08T22:07:13.830Z,29.00
2019-06-08T22:10:19.617Z,25.77
2019-06-08T22:13:25.309Z,23.63
2019-06-08T22:16:31.078Z,21.27
2019-06-08T22:19:38.038Z,29.90
2019-06-08T22:22:43.881Z,18.13
2019-06-08T22:25:49.540Z,21.57
2019-06-08T22:28:55.466Z,15.77
2019-06-08T22:32:01.153Z,23.67
2019-06-08T22:35:07.988Z,24.40
2019-06-08T22:38:13.981Z,26.50
2019-06-08T22:41:19.650Z,22.43
2019-06-08T22:44:25.348Z,17.70
2019-06-08T22:47:31.035Z,19.60
2019-06-08T22:50:38.189Z,20.00
2019-06-08T22:53:44.177Z,20.23
2019-06-08T22:56:49.831Z,15.83
2019-06-08T22:59:58.112Z,13.63
2019-06-08T23:03:04.337Z,18.70
2019-06-08T23:06:10.286Z,16.97
2019-06-08T23:09:17.992Z,14.77
2019-06-08T23:12:23.374Z,19.10
2019-06-08T23:15:29.077Z,14.80
2019-06-08T23:18:37.166Z,16.47
2019-06-08T23:21:42.170Z,15.87
2019-06-08T23:24:47.834Z,13.17
2019-06-08T23:27:53.546Z,19.03
2019-06-08T23:31:11.838Z,16.43
2019-06-08T23:34:11.304Z,15.20
2019-06-08T23:37:14.950Z,15.63
2019-06-08T23:40:20.856Z,15.10
2019-06-08T23:43:28.111Z,19.23
2019-06-08T23:46:33.888Z,19.53
2019-06-08T23:49:39.552Z,17.53
2019-06-08T23:52:47.554Z,15.87
2019-06-08T23:55:52.657Z,21.00
2019-06-08T23:58:58.877Z,17.80
